Savannah/Hunter AAF, Georgia
Current Conditions -  °F | °C
As of 6:58 PM on Saturday 25 Oct 2014 (Local Time) from KSVN Reporting Station
Clear Clear  
Wind Chill: 62°   Ceiling: Unl
Heat Index: 62°   Visibility: 10mi
Dew Point: 52°   Wind: 2mph
Humidity: 70%   Direction: 250°WSW
Pressure: 29.95"   Gusts: NA
Location:  32.02°N, 81.15°W
Report Text: KSVN 252258Z AUTO 25002KT 10SM CLR 17/11 A2995 RMK AO2 SLP145 T01660111
Loading
Personal Weather Stations






























Interactive Weather Map
Tropical Storm Tracking
New forecast layout! Learn more

10-Day Weather Forecast

Advertisements
Track Severe Weather on mobile